sensor_id;sensor_type;location;lat;lon;timestamp;pressure;altitude;pressure_sealevel;temperature;humidity
10115;BME280;5097;43.260;27.812;2023-04-15T00:02:00;99536.75;;;13.16;70.89
10115;BME280;5097;43.260;27.812;2023-04-15T00:04:44;99507.59;;;12.79;71.97
10115;BME280;5097;43.260;27.812;2023-04-15T00:07:28;99539.44;;;13.03;71.68
10115;BME280;5097;43.260;27.812;2023-04-15T00:10:14;99538.31;;;12.94;73.04
10115;BME280;5097;43.260;27.812;2023-04-15T00:12:58;99540.03;;;12.82;73.79
10115;BME280;5097;43.260;27.812;2023-04-15T00:15:42;99537.28;;;12.84;75.81
10115;BME280;5097;43.260;27.812;2023-04-15T00:18:26;99548.53;;;12.74;74.80
10115;BME280;5097;43.260;27.812;2023-04-15T00:21:10;99543.25;;;12.62;74.33
10115;BME280;5097;43.260;27.812;2023-04-15T00:23:54;99540.50;;;12.63;74.43
10115;BME280;5097;43.260;27.812;2023-04-15T00:26:40;99557.72;;;12.45;75.45
10115;BME280;5097;43.260;27.812;2023-04-15T00:29:24;99547.72;;;12.48;74.36
10115;BME280;5097;43.260;27.812;2023-04-15T00:32:07;99555.66;;;12.61;74.01
10115;BME280;5097;43.260;27.812;2023-04-15T00:34:51;99511.03;;;12.55;73.99
10115;BME280;5097;43.260;27.812;2023-04-15T00:37:35;99550.66;;;12.69;74.73
10115;BME280;5097;43.260;27.812;2023-04-15T00:40:20;99559.16;;;12.62;75.56
10115;BME280;5097;43.260;27.812;2023-04-15T00:43:07;99553.66;;;12.52;75.30
10115;BME280;5097;43.260;27.812;2023-04-15T00:45:52;99553.69;;;12.89;74.33
10115;BME280;5097;43.260;27.812;2023-04-15T00:48:37;99557.28;;;12.88;73.53
10115;BME280;5097;43.260;27.812;2023-04-15T00:51:21;99536.50;;;12.95;73.13
10115;BME280;5097;43.260;27.812;2023-04-15T00:54:06;99565.41;;;13.11;73.11
10115;BME280;5097;43.260;27.812;2023-04-15T00:56:50;99569.88;;;13.34;73.41
10115;BME280;5097;43.260;27.812;2023-04-15T00:59:35;99542.84;;;13.29;75.27
10115;BME280;5097;43.260;27.812;2023-04-15T01:02:19;99571.47;;;13.61;73.27
10115;BME280;5097;43.260;27.812;2023-04-15T01:05:04;99558.34;;;13.71;72.32
10115;BME280;5097;43.260;27.812;2023-04-15T01:07:49;99549.81;;;13.79;73.25
10115;BME280;5097;43.260;27.812;2023-04-15T01:10:33;99556.56;;;13.83;73.03
10115;BME280;5097;43.260;27.812;2023-04-15T01:13:17;99560.81;;;13.85;73.50
10115;BME280;5097;43.260;27.812;2023-04-15T01:16:05;99504.38;;;13.35;73.39
10115;BME280;5097;43.260;27.812;2023-04-15T01:18:50;99535.72;;;13.54;73.37
10115;BME280;5097;43.260;27.812;2023-04-15T01:21:35;99548.69;;;13.70;72.92
10115;BME280;5097;43.260;27.812;2023-04-15T01:24:19;99564.72;;;13.68;73.14
10115;BME280;5097;43.260;27.812;2023-04-15T01:27:05;99568.41;;;13.90;72.53
10115;BME280;5097;43.260;27.812;2023-04-15T01:29:50;99563.47;;;13.97;72.74
10115;BME280;5097;43.260;27.812;2023-04-15T01:32:34;99565.03;;;13.88;72.17
10115;BME280;5097;43.260;27.812;2023-04-15T01:35:36;99553.44;;;13.89;72.29
10115;BME280;5097;43.260;27.812;2023-04-15T01:38:20;99547.47;;;14.10;72.33
10115;BME280;5097;43.260;27.812;2023-04-15T01:41:04;99545.31;;;14.15;72.53
10115;BME280;5097;43.260;27.812;2023-04-15T01:43:50;99547.16;;;13.90;72.26
10115;BME280;5097;43.260;27.812;2023-04-15T01:46:35;99554.78;;;13.59;73.01
10115;BME280;5097;43.260;27.812;2023-04-15T01:49:19;99538.19;;;13.68;73.08
10115;BME280;5097;43.260;27.812;2023-04-15T01:52:02;99556.09;;;13.89;72.90
10115;BME280;5097;43.260;27.812;2023-04-15T01:54:47;99529.16;;;13.71;72.32
10115;BME280;5097;43.260;27.812;2023-04-15T01:57:33;99519.78;;;13.54;72.45
10115;BME280;5097;43.260;27.812;2023-04-15T02:00:19;99528.03;;;13.62;73.26
10115;BME280;5097;43.260;27.812;2023-04-15T02:03:03;99558.72;;;13.78;74.37
10115;BME280;5097;43.260;27.812;2023-04-15T02:05:48;99562.31;;;13.65;75.25
10115;BME280;5097;43.260;27.812;2023-04-15T02:08:32;99517.13;;;13.43;74.81
10115;BME280;5097;43.260;27.812;2023-04-15T02:11:16;99530.53;;;13.52;74.43
10115;BME280;5097;43.260;27.812;2023-04-15T02:14:01;99529.00;;;13.61;74.50
10115;BME280;5097;43.260;27.812;2023-04-15T02:16:47;99540.13;;;13.66;74.43
10115;BME280;5097;43.260;27.812;2023-04-15T02:19:30;99566.31;;;13.71;74.37
10115;BME280;5097;43.260;27.812;2023-04-15T02:22:17;99558.03;;;13.87;73.25
10115;BME280;5097;43.260;27.812;2023-04-15T02:25:01;99559.34;;;13.81;72.79
10115;BME280;5097;43.260;27.812;2023-04-15T02:27:46;99567.25;;;13.70;73.28
10115;BME280;5097;43.260;27.812;2023-04-15T02:30:31;99558.59;;;13.79;72.63
10115;BME280;5097;43.260;27.812;2023-04-15T02:33:18;99531.88;;;13.58;72.37
10115;BME280;5097;43.260;27.812;2023-04-15T02:36:02;99548.56;;;13.71;72.64
10115;BME280;5097;43.260;27.812;2023-04-15T02:38:46;99552.09;;;13.83;72.58
10115;BME280;5097;43.260;27.812;2023-04-15T02:41:30;99540.16;;;13.89;72.21
10115;BME280;5097;43.260;27.812;2023-04-15T02:44:14;99536.03;;;13.73;72.63
10115;BME280;5097;43.260;27.812;2023-04-15T02:47:00;99561.78;;;13.96;73.06
10115;BME280;5097;43.260;27.812;2023-04-15T02:49:46;99545.06;;;14.06;73.23
10115;BME280;5097;43.260;27.812;2023-04-15T02:52:30;99546.50;;;14.11;74.30
10115;BME280;5097;43.260;27.812;2023-04-15T02:55:13;99555.91;;;14.15;73.85
10115;BME280;5097;43.260;27.812;2023-04-15T02:58:00;99559.78;;;14.11;74.29
10115;BME280;5097;43.260;27.812;2023-04-15T03:00:44;99558.78;;;14.12;74.15
10115;BME280;5097;43.260;27.812;2023-04-15T03:03:27;99559.66;;;14.23;74.78
10115;BME280;5097;43.260;27.812;2023-04-15T03:06:13;99548.56;;;14.30;75.26
10115;BME280;5097;43.260;27.812;2023-04-15T03:08:57;99533.72;;;14.27;75.74
10115;BME280;5097;43.260;27.812;2023-04-15T03:11:47;99548.19;;;14.23;75.02
10115;BME280;5097;43.260;27.812;2023-04-15T03:14:33;99551.59;;;14.36;74.50
10115;BME280;5097;43.260;27.812;2023-04-15T03:17:17;99545.78;;;14.42;74.56
10115;BME280;5097;43.260;27.812;2023-04-15T03:20:01;99552.81;;;14.55;73.33
10115;BME280;5097;43.260;27.812;2023-04-15T03:22:47;99559.84;;;14.67;72.86
10115;BME280;5097;43.260;27.812;2023-04-15T03:25:33;99563.44;;;14.66;71.75
10115;BME280;5097;43.260;27.812;2023-04-15T03:28:20;99552.81;;;14.78;72.34
10115;BME280;5097;43.260;27.812;2023-04-15T03:31:05;99556.66;;;14.85;71.54
10115;BME280;5097;43.260;27.812;2023-04-15T03:33:49;99550.25;;;14.87;71.39
10115;BME280;5097;43.260;27.812;2023-04-15T03:36:33;99549.31;;;14.88;72.60
10115;BME280;5097;43.260;27.812;2023-04-15T03:39:18;99553.31;;;14.71;72.02
10115;BME280;5097;43.260;27.812;2023-04-15T03:42:02;99549.50;;;14.63;72.86
10115;BME280;5097;43.260;27.812;2023-04-15T03:44:46;99549.44;;;14.75;73.09
10115;BME280;5097;43.260;27.812;2023-04-15T03:47:29;99552.56;;;14.69;73.01
10115;BME280;5097;43.260;27.812;2023-04-15T03:50:13;99555.72;;;14.63;73.59
10115;BME280;5097;43.260;27.812;2023-04-15T03:52:57;99548.13;;;14.70;73.00
10115;BME280;5097;43.260;27.812;2023-04-15T03:55:42;99550.63;;;14.83;71.88
10115;BME280;5097;43.260;27.812;2023-04-15T03:58:26;99547.97;;;14.60;74.04
10115;BME280;5097;43.260;27.812;2023-04-15T04:01:10;99556.91;;;14.70;73.75
10115;BME280;5097;43.260;27.812;2023-04-15T04:03:54;99559.34;;;14.85;74.76
10115;BME280;5097;43.260;27.812;2023-04-15T04:06:38;99553.88;;;14.98;74.36
10115;BME280;5097;43.260;27.812;2023-04-15T04:09:22;99552.66;;;14.90;73.71
10115;BME280;5097;43.260;27.812;2023-04-15T04:12:07;99554.47;;;15.01;74.11
10115;BME280;5097;43.260;27.812;2023-04-15T04:14:51;99553.50;;;15.02;74.19
10115;BME280;5097;43.260;27.812;2023-04-15T04:17:35;99564.91;;;14.82;73.75
10115;BME280;5097;43.260;27.812;2023-04-15T04:20:18;99575.03;;;14.88;74.02
10115;BME280;5097;43.260;27.812;2023-04-15T04:23:02;99573.38;;;14.87;75.38
10115;BME280;5097;43.260;27.812;2023-04-15T04:25:46;99563.91;;;14.94;73.89
10115;BME280;5097;43.260;27.812;2023-04-15T04:28:31;99565.38;;;14.87;74.77
10115;BME280;5097;43.260;27.812;2023-04-15T04:31:17;99556.63;;;14.96;73.41
10115;BME280;5097;43.260;27.812;2023-04-15T04:34:01;99576.59;;;14.90;71.55
10115;BME280;5097;43.260;27.812;2023-04-15T04:36:45;99583.25;;;14.96;71.26
10115;BME280;5097;43.260;27.812;2023-04-15T04:39:29;99581.31;;;14.98;71.21
10115;BME280;5097;43.260;27.812;2023-04-15T04:42:13;99576.34;;;15.05;71.02
10115;BME280;5097;43.260;27.812;2023-04-15T04:44:58;99566.06;;;15.12;70.74
10115;BME280;5097;43.260;27.812;2023-04-15T04:47:41;99568.09;;;15.19;69.77
10115;BME280;5097;43.260;27.812;2023-04-15T04:50:25;99568.53;;;15.36;69.41
10115;BME280;5097;43.260;27.812;2023-04-15T04:53:09;99568.03;;;15.42;68.96
10115;BME280;5097;43.260;27.812;2023-04-15T04:55:53;99564.13;;;15.14;68.70
10115;BME280;5097;43.260;27.812;2023-04-15T04:58:37;99559.56;;;15.04;68.96
10115;BME280;5097;43.260;27.812;2023-04-15T05:01:22;99566.53;;;15.17;68.78
10115;BME280;5097;43.260;27.812;2023-04-15T05:04:08;99579.63;;;14.97;68.93
10115;BME280;5097;43.260;27.812;2023-04-15T05:06:51;99578.41;;;15.13;69.12
10115;BME280;5097;43.260;27.812;2023-04-15T05:09:35;99563.19;;;15.03;69.01
10115;BME280;5097;43.260;27.812;2023-04-15T05:12:19;99562.66;;;15.09;69.08
10115;BME280;5097;43.260;27.812;2023-04-15T05:15:03;99571.66;;;15.41;68.45
10115;BME280;5097;43.260;27.812;2023-04-15T05:17:49;99569.41;;;15.25;68.18
10115;BME280;5097;43.260;27.812;2023-04-15T05:20:33;99567.44;;;15.38;67.74
10115;BME280;5097;43.260;27.812;2023-04-15T05:23:16;99556.84;;;15.16;68.46
10115;BME280;5097;43.260;27.812;2023-04-15T05:26:00;99566.66;;;15.15;68.78
10115;BME280;5097;43.260;27.812;2023-04-15T05:28:44;99583.66;;;15.24;68.59
10115;BME280;5097;43.260;27.812;2023-04-15T05:31:29;99588.38;;;15.32;68.53
10115;BME280;5097;43.260;27.812;2023-04-15T05:34:14;99584.56;;;15.46;68.21
10115;BME280;5097;43.260;27.812;2023-04-15T05:36:58;99599.16;;;15.30;67.51
10115;BME280;5097;43.260;27.812;2023-04-15T05:39:42;99609.59;;;14.88;70.17
10115;BME280;5097;43.260;27.812;2023-04-15T05:42:26;99616.63;;;14.08;74.88
10115;BME280;5097;43.260;27.812;2023-04-15T05:45:10;99618.84;;;13.90;75.80
10115;BME280;5097;43.260;27.812;2023-04-15T05:47:55;99634.19;;;13.86;76.98
10115;BME280;5097;43.260;27.812;2023-04-15T05:50:41;99651.75;;;13.76;78.52
10115;BME280;5097;43.260;27.812;2023-04-15T05:53:25;99654.25;;;13.90;77.84
10115;BME280;5097;43.260;27.812;2023-04-15T05:56:08;99656.13;;;14.13;77.60
10115;BME280;5097;43.260;27.812;2023-04-15T05:58:52;99669.63;;;14.10;76.74
10115;BME280;5097;43.260;27.812;2023-04-15T06:01:36;99664.75;;;13.92;79.04
10115;BME280;5097;43.260;27.812;2023-04-15T06:04:20;99671.94;;;14.14;79.62
10115;BME280;5097;43.260;27.812;2023-04-15T06:07:05;99690.41;;;14.16;80.44
10115;BME280;5097;43.260;27.812;2023-04-15T06:09:50;99687.19;;;14.23;80.51
10115;BME280;5097;43.260;27.812;2023-04-15T06:12:34;99685.97;;;14.16;81.48
10115;BME280;5097;43.260;27.812;2023-04-15T06:15:18;99678.53;;;13.73;84.03
10115;BME280;5097;43.260;27.812;2023-04-15T06:18:02;99676.91;;;14.19;84.08
10115;BME280;5097;43.260;27.812;2023-04-15T06:20:46;99669.06;;;14.17;83.75
10115;BME280;5097;43.260;27.812;2023-04-15T06:23:33;99678.06;;;14.39;84.42
10115;BME280;5097;43.260;27.812;2023-04-15T06:26:17;99678.94;;;14.51;83.05
10115;BME280;5097;43.260;27.812;2023-04-15T06:29:01;99679.72;;;14.64;82.70
10115;BME280;5097;43.260;27.812;2023-04-15T06:31:46;99678.19;;;14.49;83.69
10115;BME280;5097;43.260;27.812;2023-04-15T06:34:30;99673.44;;;14.77;82.07
10115;BME280;5097;43.260;27.812;2023-04-15T06:37:14;99694.22;;;15.05;81.42
10115;BME280;5097;43.260;27.812;2023-04-15T06:39:59;99678.16;;;15.07;81.96
10115;BME280;5097;43.260;27.812;2023-04-15T06:42:44;99678.22;;;15.51;80.37
10115;BME280;5097;43.260;27.812;2023-04-15T06:45:30;99677.44;;;15.83;78.04
10115;BME280;5097;43.260;27.812;2023-04-15T06:48:14;99684.31;;;16.39;76.64
10115;BME280;5097;43.260;27.812;2023-04-15T06:50:59;99679.00;;;16.39;74.57
10115;BME280;5097;43.260;27.812;2023-04-15T06:53:43;99680.75;;;16.92;73.05
10115;BME280;5097;43.260;27.812;2023-04-15T06:56:28;99692.56;;;16.99;70.74
10115;BME280;5097;43.260;27.812;2023-04-15T06:59:12;99701.63;;;16.66;69.51
10115;BME280;5097;43.260;27.812;2023-04-15T07:01:56;99695.31;;;16.46;70.99
10115;BME280;5097;43.260;27.812;2023-04-15T07:04:40;99551.56;;;15.81;70.95
10115;BME280;5097;43.260;27.812;2023-04-15T07:07:24;99697.38;;;17.05;69.97
10115;BME280;5097;43.260;27.812;2023-04-15T07:10:08;99700.44;;;17.41;68.12
10115;BME280;5097;43.260;27.812;2023-04-15T07:12:55;99714.94;;;17.58;66.98
10115;BME280;5097;43.260;27.812;2023-04-15T07:15:39;99722.41;;;17.14;67.69
10115;BME280;5097;43.260;27.812;2023-04-15T07:18:22;99731.22;;;16.84;69.39
10115;BME280;5097;43.260;27.812;2023-04-15T07:21:06;99731.69;;;16.68;70.32
10115;BME280;5097;43.260;27.812;2023-04-15T07:23:51;99689.53;;;16.62;69.65
10115;BME280;5097;43.260;27.812;2023-04-15T07:26:35;99696.88;;;16.69;68.68
10115;BME280;5097;43.260;27.812;2023-04-15T07:29:20;99723.22;;;17.46;67.91
10115;BME280;5097;43.260;27.812;2023-04-15T07:32:04;99724.78;;;18.08;66.72
10115;BME280;5097;43.260;27.812;2023-04-15T07:34:48;99715.56;;;18.70;63.20
10115;BME280;5097;43.260;27.812;2023-04-15T07:37:33;99695.63;;;19.12;62.32
10115;BME280;5097;43.260;27.812;2023-04-15T07:40:17;99719.03;;;19.37;60.71
10115;BME280;5097;43.260;27.812;2023-04-15T07:43:01;99683.47;;;19.45;60.84
10115;BME280;5097;43.260;27.812;2023-04-15T07:45:46;99696.19;;;19.89;58.24
10115;BME280;5097;43.260;27.812;2023-04-15T07:48:30;99678.78;;;19.19;60.98
10115;BME280;5097;43.260;27.812;2023-04-15T07:51:15;99718.63;;;20.06;59.91
10115;BME280;5097;43.260;27.812;2023-04-15T07:54:00;99727.75;;;19.67;59.21
10115;BME280;5097;43.260;27.812;2023-04-15T07:56:45;99723.47;;;19.19;59.85
10115;BME280;5097;43.260;27.812;2023-04-15T07:59:29;99742.59;;;18.96;60.30
10115;BME280;5097;43.260;27.812;2023-04-15T08:02:16;99720.66;;;18.73;60.93
10115;BME280;5097;43.260;27.812;2023-04-15T08:05:00;99698.16;;;18.07;61.88
10115;BME280;5097;43.260;27.812;2023-04-15T08:07:45;99742.34;;;18.50;61.31
10115;BME280;5097;43.260;27.812;2023-04-15T08:10:29;99736.13;;;17.91;61.95
10115;BME280;5097;43.260;27.812;2023-04-15T08:13:13;99720.69;;;18.43;61.06
10115;BME280;5097;43.260;27.812;2023-04-15T08:16:15;99729.91;;;18.88;61.07
10115;BME280;5097;43.260;27.812;2023-04-15T08:19:02;99726.84;;;18.64;61.36
10115;BME280;5097;43.260;27.812;2023-04-15T08:21:46;99583.81;;;17.91;61.72
10115;BME280;5097;43.260;27.812;2023-04-15T08:24:30;99717.53;;;17.89;63.61
10115;BME280;5097;43.260;27.812;2023-04-15T08:27:14;99679.19;;;18.87;61.33
10115;BME280;5097;43.260;27.812;2023-04-15T08:29:58;99699.19;;;18.83;61.90
10115;BME280;5097;43.260;27.812;2023-04-15T08:32:45;99710.13;;;18.52;61.81
10115;BME280;5097;43.260;27.812;2023-04-15T08:35:31;99713.78;;;18.51;62.07
10115;BME280;5097;43.260;27.812;2023-04-15T08:38:15;99705.78;;;18.12;62.62
10115;BME280;5097;43.260;27.812;2023-04-15T08:41:01;99739.22;;;17.96;63.01
10115;BME280;5097;43.260;27.812;2023-04-15T08:43:51;99732.84;;;17.68;64.28
10115;BME280;5097;43.260;27.812;2023-04-15T08:46:35;99739.03;;;17.28;65.17
10115;BME280;5097;43.260;27.812;2023-04-15T08:49:21;99749.78;;;17.47;66.55
10115;BME280;5097;43.260;27.812;2023-04-15T08:52:11;99748.47;;;17.82;65.55
10115;BME280;5097;43.260;27.812;2023-04-15T08:54:56;99732.22;;;18.44;63.09
10115;BME280;5097;43.260;27.812;2023-04-15T08:57:41;99730.03;;;18.97;61.55
10115;BME280;5097;43.260;27.812;2023-04-15T09:00:25;99732.75;;;18.77;61.63
10115;BME280;5097;43.260;27.812;2023-04-15T09:03:09;99733.78;;;19.14;59.44
10115;BME280;5097;43.260;27.812;2023-04-15T09:05:53;99634.16;;;18.72;60.24
10115;BME280;5097;43.260;27.812;2023-04-15T09:08:39;99690.47;;;18.90;59.96
10115;BME280;5097;43.260;27.812;2023-04-15T09:11:23;99731.53;;;19.74;58.80
10115;BME280;5097;43.260;27.812;2023-04-15T09:14:07;99734.00;;;19.58;58.16
10115;BME280;5097;43.260;27.812;2023-04-15T09:16:58;99728.34;;;19.33;58.90
10115;BME280;5097;43.260;27.812;2023-04-15T09:19:43;99749.44;;;19.46;60.55
10115;BME280;5097;43.260;27.812;2023-04-15T09:22:31;99667.03;;;18.55;59.04
10115;BME280;5097;43.260;27.812;2023-04-15T09:25:27;99745.97;;;18.79;60.60
10115;BME280;5097;43.260;27.812;2023-04-15T09:28:10;99756.94;;;18.95;61.78
10115;BME280;5097;43.260;27.812;2023-04-15T09:30:55;99749.63;;;19.35;60.61
10115;BME280;5097;43.260;27.812;2023-04-15T09:33:53;99730.09;;;19.52;59.33
10115;BME280;5097;43.260;27.812;2023-04-15T09:36:51;99734.41;;;19.63;58.06
10115;BME280;5097;43.260;27.812;2023-04-15T09:39:47;99739.09;;;19.23;59.83
10115;BME280;5097;43.260;27.812;2023-04-15T09:42:35;99737.88;;;19.73;59.49
10115;BME280;5097;43.260;27.812;2023-04-15T09:45:20;99748.13;;;19.88;60.72
10115;BME280;5097;43.260;27.812;2023-04-15T09:48:16;99742.38;;;19.83;57.96
10115;BME280;5097;43.260;27.812;2023-04-15T09:51:02;99748.19;;;20.14;56.44
10115;BME280;5097;43.260;27.812;2023-04-15T09:53:53;99749.28;;;19.75;59.76
10115;BME280;5097;43.260;27.812;2023-04-15T09:56:39;99736.97;;;19.27;58.37
10115;BME280;5097;43.260;27.812;2023-04-15T09:59:25;99761.22;;;19.25;57.89
10115;BME280;5097;43.260;27.812;2023-04-15T10:02:10;99746.81;;;19.64;56.58
10115;BME280;5097;43.260;27.812;2023-04-15T10:04:56;99752.47;;;19.33;57.56
10115;BME280;5097;43.260;27.812;2023-04-15T10:07:41;99748.75;;;19.72;55.92
10115;BME280;5097;43.260;27.812;2023-04-15T10:10:25;99739.03;;;19.43;58.02
10115;BME280;5097;43.260;27.812;2023-04-15T10:13:09;99738.88;;;20.00;53.83
10115;BME280;5097;43.260;27.812;2023-04-15T10:15:57;99718.41;;;19.81;54.71
10115;BME280;5097;43.260;27.812;2023-04-15T10:18:43;99746.16;;;19.52;54.34
10115;BME280;5097;43.260;27.812;2023-04-15T10:21:29;99607.16;;;18.66;54.85
10115;BME280;5097;43.260;27.812;2023-04-15T10:24:14;99735.47;;;19.70;54.84
10115;BME280;5097;43.260;27.812;2023-04-15T10:26:59;99729.22;;;20.25;54.12
10115;BME280;5097;43.260;27.812;2023-04-15T10:29:43;99741.06;;;19.59;54.26
10115;BME280;5097;43.260;27.812;2023-04-15T10:32:28;99738.47;;;19.95;53.35
10115;BME280;5097;43.260;27.812;2023-04-15T10:35:13;99743.16;;;20.11;52.76
10115;BME280;5097;43.260;27.812;2023-04-15T10:37:57;99689.06;;;19.52;53.25
10115;BME280;5097;43.260;27.812;2023-04-15T10:40:42;99741.03;;;20.15;52.28
10115;BME280;5097;43.260;27.812;2023-04-15T10:43:27;99728.72;;;19.94;52.37
10115;BME280;5097;43.260;27.812;2023-04-15T10:46:11;99729.84;;;19.73;52.92
10115;BME280;5097;43.260;27.812;2023-04-15T10:48:56;99737.06;;;19.35;54.94
10115;BME280;5097;43.260;27.812;2023-04-15T10:51:41;99732.75;;;19.24;54.08
10115;BME280;5097;43.260;27.812;2023-04-15T10:54:31;99722.88;;;18.77;59.83
10115;BME280;5097;43.260;27.812;2023-04-15T10:57:21;99730.66;;;18.61;59.76
10115;BME280;5097;43.260;27.812;2023-04-15T11:00:10;99726.81;;;18.93;58.86
10115;BME280;5097;43.260;27.812;2023-04-15T11:02:56;99732.03;;;18.85;57.09
10115;BME280;5097;43.260;27.812;2023-04-15T11:05:51;99726.53;;;18.96;57.40
10115;BME280;5097;43.260;27.812;2023-04-15T11:08:55;99721.69;;;19.09;58.46
10115;BME280;5097;43.260;27.812;2023-04-15T11:12:06;99723.09;;;19.41;58.24
10115;BME280;5097;43.260;27.812;2023-04-15T11:14:50;99709.78;;;19.22;56.79
10115;BME280;5097;43.260;27.812;2023-04-15T11:17:34;99728.16;;;19.07;57.72
10115;BME280;5097;43.260;27.812;2023-04-15T11:20:18;99728.47;;;19.04;56.91
10115;BME280;5097;43.260;27.812;2023-04-15T11:23:04;99723.69;;;19.07;55.58
10115;BME280;5097;43.260;27.812;2023-04-15T11:25:57;99731.00;;;19.05;56.38
10115;BME280;5097;43.260;27.812;2023-04-15T11:28:43;99703.72;;;18.92;56.28
10115;BME280;5097;43.260;27.812;2023-04-15T11:31:27;99709.91;;;18.92;56.10
10115;BME280;5097;43.260;27.812;2023-04-15T11:34:11;99730.72;;;19.36;55.64
10115;BME280;5097;43.260;27.812;2023-04-15T11:36:56;99726.84;;;19.49;54.36
10115;BME280;5097;43.260;27.812;2023-04-15T11:39:41;99729.34;;;19.32;55.44
10115;BME280;5097;43.260;27.812;2023-04-15T11:42:24;99713.56;;;19.57;54.81
10115;BME280;5097;43.260;27.812;2023-04-15T11:45:24;99730.50;;;19.75;53.78
10115;BME280;5097;43.260;27.812;2023-04-15T11:48:09;99722.31;;;19.59;53.93
10115;BME280;5097;43.260;27.812;2023-04-15T11:50:55;99718.13;;;19.74;53.91
10115;BME280;5097;43.260;27.812;2023-04-15T11:53:42;99720.31;;;19.33;53.64
10115;BME280;5097;43.260;27.812;2023-04-15T11:56:33;99722.94;;;19.43;53.73
10115;BME280;5097;43.260;27.812;2023-04-15T11:59:17;99715.88;;;19.52;51.90
10115;BME280;5097;43.260;27.812;2023-04-15T12:02:10;99721.00;;;19.91;52.90
10115;BME280;5097;43.260;27.812;2023-04-15T12:05:02;99714.50;;;19.93;52.01
10115;BME280;5097;43.260;27.812;2023-04-15T12:07:59;99714.16;;;19.79;51.80
10115;BME280;5097;43.260;27.812;2023-04-15T12:10:43;99714.94;;;20.25;50.79
10115;BME280;5097;43.260;27.812;2023-04-15T12:13:28;99710.41;;;20.43;50.23
10115;BME280;5097;43.260;27.812;2023-04-15T12:16:12;99707.66;;;20.35;47.94
10115;BME280;5097;43.260;27.812;2023-04-15T12:18:59;99703.13;;;20.54;50.76
10115;BME280;5097;43.260;27.812;2023-04-15T12:21:47;99700.72;;;20.51;49.93
10115;BME280;5097;43.260;27.812;2023-04-15T12:24:31;99680.94;;;20.52;48.95
10115;BME280;5097;43.260;27.812;2023-04-15T12:27:16;99668.63;;;20.41;48.62
10115;BME280;5097;43.260;27.812;2023-04-15T12:30:04;99710.09;;;20.47;49.28
10115;BME280;5097;43.260;27.812;2023-04-15T12:32:50;99704.72;;;20.91;47.76
10115;BME280;5097;43.260;27.812;2023-04-15T12:35:34;99708.91;;;20.93;47.88
10115;BME280;5097;43.260;27.812;2023-04-15T12:38:18;99702.00;;;21.17;47.33
10115;BME280;5097;43.260;27.812;2023-04-15T12:41:02;99698.25;;;20.75;48.51
10115;BME280;5097;43.260;27.812;2023-04-15T12:43:46;99680.00;;;20.61;46.85
10115;BME280;5097;43.260;27.812;2023-04-15T12:46:32;99683.56;;;20.88;48.55
10115;BME280;5097;43.260;27.812;2023-04-15T12:49:16;99704.44;;;21.02;46.79
10115;BME280;5097;43.260;27.812;2023-04-15T12:52:02;99705.28;;;21.03;45.31
10115;BME280;5097;43.260;27.812;2023-04-15T12:54:47;99698.63;;;20.81;44.95
10115;BME280;5097;43.260;27.812;2023-04-15T12:57:30;99707.97;;;21.37;45.21
10115;BME280;5097;43.260;27.812;2023-04-15T13:00:14;99700.09;;;21.44;44.67
10115;BME280;5097;43.260;27.812;2023-04-15T13:03:00;99689.13;;;21.80;44.31
10115;BME280;5097;43.260;27.812;2023-04-15T13:05:48;99695.84;;;21.76;43.19
10115;BME280;5097;43.260;27.812;2023-04-15T13:08:32;99699.19;;;21.70;43.68
10115;BME280;5097;43.260;27.812;2023-04-15T13:11:18;99702.56;;;21.72;43.84
10115;BME280;5097;43.260;27.812;2023-04-15T13:14:04;99696.78;;;21.50;43.92
10115;BME280;5097;43.260;27.812;2023-04-15T13:16:48;99697.75;;;22.00;44.61
10115;BME280;5097;43.260;27.812;2023-04-15T13:19:33;99698.59;;;22.09;44.65
10115;BME280;5097;43.260;27.812;2023-04-15T13:22:18;99680.00;;;21.14;46.69
10115;BME280;5097;43.260;27.812;2023-04-15T13:25:02;99710.63;;;21.29;47.17
10115;BME280;5097;43.260;27.812;2023-04-15T13:27:46;99703.09;;;20.98;46.65
10115;BME280;5097;43.260;27.812;2023-04-15T13:30:30;99710.97;;;21.34;45.22
10115;BME280;5097;43.260;27.812;2023-04-15T13:33:15;99702.06;;;21.76;45.72
10115;BME280;5097;43.260;27.812;2023-04-15T13:36:01;99704.59;;;21.78;44.18
10115;BME280;5097;43.260;27.812;2023-04-15T13:38:44;99702.78;;;21.44;43.88
10115;BME280;5097;43.260;27.812;2023-04-15T13:41:32;99703.66;;;21.45;46.02
10115;BME280;5097;43.260;27.812;2023-04-15T13:44:16;99704.44;;;21.71;44.74
10115;BME280;5097;43.260;27.812;2023-04-15T13:47:03;99704.56;;;21.27;42.24
10115;BME280;5097;43.260;27.812;2023-04-15T13:49:47;99697.84;;;20.88;43.11
10115;BME280;5097;43.260;27.812;2023-04-15T13:52:32;99695.03;;;20.98;42.73
10115;BME280;5097;43.260;27.812;2023-04-15T13:55:16;99694.53;;;21.03;42.32
10115;BME280;5097;43.260;27.812;2023-04-15T13:58:05;99705.91;;;21.74;42.29
10115;BME280;5097;43.260;27.812;2023-04-15T14:00:49;99708.84;;;21.89;40.34
10115;BME280;5097;43.260;27.812;2023-04-15T14:03:34;99705.16;;;22.15;41.40
10115;BME280;5097;43.260;27.812;2023-04-15T14:06:18;99716.84;;;21.72;41.11
10115;BME280;5097;43.260;27.812;2023-04-15T14:09:04;99703.47;;;21.97;42.19
10115;BME280;5097;43.260;27.812;2023-04-15T14:11:48;99690.34;;;22.02;42.16
10115;BME280;5097;43.260;27.812;2023-04-15T14:14:32;99680.78;;;22.00;41.06
10115;BME280;5097;43.260;27.812;2023-04-15T14:17:16;99712.88;;;22.09;41.91
10115;BME280;5097;43.260;27.812;2023-04-15T14:20:00;99702.91;;;21.77;42.35
10115;BME280;5097;43.260;27.812;2023-04-15T14:22:44;99690.09;;;21.54;42.74
10115;BME280;5097;43.260;27.812;2023-04-15T14:25:30;99713.00;;;21.40;42.18
10115;BME280;5097;43.260;27.812;2023-04-15T14:28:15;99716.91;;;21.97;41.60
10115;BME280;5097;43.260;27.812;2023-04-15T14:30:59;99710.53;;;21.98;41.61
10115;BME280;5097;43.260;27.812;2023-04-15T14:33:43;99711.00;;;21.42;40.72
10115;BME280;5097;43.260;27.812;2023-04-15T14:36:27;99717.97;;;21.27;42.39